| time (UTC) | temp C | wind direction | speed KPH | gust KPH | rain 1hr cm | rain 24hr cm | rain mn cm | humidity % | barometer mb |
| 20260503045127 | 9 | 315 | 4.8 | 4.8 | 0.00 | 0.00 | 0.00 | 59 | 1013.7 |
| 20260503044226 | 9 | 337 | 1.6 | 1.6 | 0.00 | 0.00 | 0.00 | 59 | 1013.7 |
| 20260503043226 | 9 | 337 | 3.2 | 3.2 | 0.00 | 0.00 | 0.00 | 60 | 1013.8 |
| 20260503042226 | 9 | 337 | 6.4 | 6.4 | 0.00 | 0.00 | 0.00 | 62 | 1014.0 |
| 20260503041242 | -17 | 0 | 0.0 | 0.0 | 0.00 | 0.00 | 0.00 | 100 | |
| 20260503035329 | -17 | 0 | 0.0 | 0.0 | 0.00 | 0.00 | 0.00 | 100 | |
| 20260503034327 | -17 | 0 | 0.0 | 0.0 | 0.00 | 0.00 | 0.00 | 100 | |
| 20260503033328 | -17 | 0 | 0.0 | 0.0 | 0.00 | 0.00 | 0.00 | 100 | |
| 20260503032326 | 10 | 337 | 4.8 | 4.8 | 0.00 | 0.00 | 0.00 | 58 | 1014.5 |
| 20260503031425 | 10 | 315 | 6.4 | 8.0 | 0.00 | 0.00 | 0.00 | 60 | 1014.4 |
| 20260503031342 | -17 | 0 | 0.0 | 0.0 | 0.00 | 0.00 | 0.00 | 100 | |
| 20260503030327 | 10 | 337 | 3.2 | 3.2 | 0.00 | 0.00 | 0.00 | 58 | 1014.7 |
| 20260503025327 | 11 | 337 | 4.8 | 4.8 | 0.00 | 0.00 | 0.00 | 55 | 1014.7 |
| 20260503024327 | 11 | 319 | 0.0 | 6.4 | 0.00 | 0.00 | 0.00 | 55 | 1014.8 |
| 20260503023425 | 11 | 252 | 1.6 | 4.8 | 0.00 | 0.00 | 0.00 | 58 | 1014.8 |
| 20260503022428 | -17 | 0 | 0.0 | 0.0 | 0.00 | 0.00 | 0.00 | 100 | |
| 20260503021426 | -17 | 0 | 0.0 | 0.0 | 0.00 | 0.00 | 0.00 | 100 | |
| 20260503020514 | 11 | 337 | 0.0 | 0.0 | 0.00 | 0.00 | 0.00 | 56 | 1014.9 |
| 20260503015516 | 11 | 360 | 4.8 | 4.8 | 0.00 | 0.00 | 0.00 | 54 | 1014.9 |
| 20260503014613 | 11 | 337 | 4.8 | 4.8 | 0.00 | 0.00 | 0.00 | 52 | 1014.9 |
| 20260503012616 | 11 | 22 | 0.0 | 0.0 | 0.00 | 0.00 | 0.00 | 54 | 1014.9 |
| 20260503010615 | 11 | 337 | 0.0 | 0.0 | 0.00 | 0.00 | 0.00 | 56 | 1015.1 |
| 20260503005613 | 12 | 350 | 3.2 | 3.2 | 0.00 | 0.00 | 0.00 | 54 | 1015.0 |
| 20260503004616 | 12 | 319 | 3.2 | 3.2 | 0.00 | 0.00 | 0.00 | 52 | 1015.1 |
| 20260503002713 | 14 | 354 | 0.0 | 1.6 | 0.00 | 0.00 | 0.00 | 41 | 1015.2 |
| 20260503001717 | 15 | 293 | 4.8 | 6.4 | 0.00 | 0.00 | 0.00 | 36 | 1015.3 |
| 20260503000715 | 15 | 225 | 3.2 | 6.4 | 0.00 | 0.00 | 0.00 | 36 | 1015.3 |
| 20260502232913 | 17 | 342 | 3.2 | 9.7 | 0.00 | 0.00 | 0.00 | 30 | 1015.6 |
| 20260502232013 | 16 | 33 | 4.8 | 11.3 | 0.00 | 0.00 | 0.00 | 30 | 1015.7 |
| 20260502231014 | 16 | 257 | 0.0 | 3.2 | 0.00 | 0.00 | 0.00 | 29 | 1015.5 |
| 20260502230017 | 17 | 180 | 3.2 | 6.4 | 0.00 | 0.00 | 0.00 | 29 | 1015.7 |
| 20260502225016 | 16 | 114 | 3.2 | 6.4 | 0.00 | 0.00 | 0.00 | 30 | 1015.9 |
| 20260502224014 | 17 | 148 | 4.8 | 9.7 | 0.00 | 0.00 | 0.00 | 32 | 1016.0 |
| 20260502222015 | 16 | 293 | 3.2 | 6.4 | 0.00 | 0.00 | 0.00 | 31 | 1016.0 |
| 20260502221031 | 16 | 230 | 4.8 | 9.7 | 0.00 | 0.00 | 0.00 | 31 | 1016.3 |
| 20260502215117 | 16 | 360 | 6.4 | 11.3 | 0.00 | 0.00 | 0.00 | 30 | 1016.8 |
| 20260502213116 | 16 | 210 | 4.8 | 12.9 | 0.00 | 0.00 | 0.00 | 30 | 1016.8 |
| 20260502210216 | 16 | 61 | 4.8 | 8.0 | 0.00 | 0.00 | 0.00 | 29 | 1017.1 |
| 20260502205216 | 16 | 128 | 6.4 | 16.1 | 0.00 | 0.00 | 0.00 | 29 | 1017.4 |
| 20260502204215 | 15 | 193 | 3.2 | 8.0 | 0.00 | 0.00 | 0.00 | 29 | 1017.3 |
| 20260502203231 | 15 | 217 | 0.0 | 8.0 | 0.00 | 0.00 | 0.00 | 30 | 1017.9 |
| 20260502202316 | 15 | 163 | 16.1 | 20.9 | 0.00 | 0.00 | 0.00 | 29 | 1017.6 |
| 20260502201315 | 15 | 356 | 6.4 | 11.3 | 0.00 | 0.00 | 0.00 | 30 | 1018.2 |
| 20260502195315 | 15 | 121 | 8.0 | 14.5 | 0.00 | 0.00 | 0.00 | 30 | 1018.3 |
| 20260502194413 | 15 | 145 | 12.9 | 22.5 | 0.00 | 0.00 | 0.00 | 32 | 1018.3 |
| 20260502193414 | 15 | 139 | 0.0 | 6.4 | 0.00 | 0.00 | 0.00 | 33 | 1018.5 |
| 20260502192414 | 15 | 309 | 3.2 | 6.4 | 0.00 | 0.00 | 0.00 | 31 | 1018.7 |
| 20260502191417 | 15 | 359 | 3.2 | 12.9 | 0.00 | 0.00 | 0.00 | 31 | 1018.9 |
| 20260502185515 | 14 | 284 | 8.0 | 20.9 | 0.00 | 0.00 | 0.00 | 33 | 1019.1 |
| 20260502184613 | 15 | 135 | 3.2 | 11.3 | 0.00 | 0.00 | 0.00 | 32 | 1019.4 |
| 20260502183614 | 15 | 170 | 1.6 | 6.4 | 0.00 | 0.00 | 0.00 | 33 | 1019.5 |
| 20260502181613 | 14 | 171 | 4.8 | 11.3 | 0.00 | 0.00 | 0.00 | 33 | 1019.6 |
| 20260502180614 | 14 | 16 | 4.8 | 11.3 | 0.00 | 0.00 | 0.00 | 33 | 1019.7 |
| 20260502162814 | 12 | 160 | 4.8 | 6.4 | 0.00 | 0.00 | 0.00 | 36 | 1020.8 |
| 20260502160828 | 12 | 160 | 3.2 | 8.0 | 0.00 | 0.00 | 0.00 | 35 | 1021.0 |
| 20260502151916 | 12 | 214 | 1.6 | 3.2 | 0.00 | 0.00 | 0.00 | 41 | 1021.2 |
| 20260502151814 | 12 | 220 | 1.6 | 4.8 | 0.00 | 0.00 | 0.00 | 41 | 1021.1 |
| 20260502150914 | 12 | 289 | 6.4 | 11.3 | 0.00 | 0.00 | 0.00 | 41 | 1021.2 |
| 20260502130514 | 7 | 195 | 0.0 | 1.6 | 0.00 | 0.00 | 0.00 | 54 | 1022.1 |
| 20260502123515 | 5 | 292 | 0.0 | 1.6 | 0.00 | 0.00 | 0.00 | 59 | 1022.0 |
| 20260502122613 | 5 | 92 | 1.6 | 11.3 | 0.00 | 0.00 | 0.00 | 62 | 1022.0 |
| 20260502121613 | 3 | 131 | 1.6 | 4.8 | 0.00 | 0.00 | 0.00 | 72 | 1022.0 |
| 20260502120614 | 0 | 171 | 0.0 | 3.2 | 0.00 | 0.00 | 0.00 | 86 | 1021.9 |
| 20260502115614 | 0 | 360 | 0.0 | 0.0 | 0.00 | 0.00 | 0.00 | 91 | 1021.7 |
| 20260502114613 | -1 | 337 | 1.6 | 3.2 | 0.00 | 0.00 | 0.00 | 93 | 1021.7 |
| 20260502112629 | -1 | 337 | 0.0 | 0.0 | 0.00 | 0.00 | 0.00 | 93 | 1021.7 |
| 20260502111613 | -1 | 337 | 0.0 | 0.0 | 0.00 | 0.00 | 0.00 | 93 | 1021.6 |
| 20260502110616 | -1 | 337 | 0.0 | 0.0 | 0.00 | 0.00 | 0.00 | 92 | 1021.5 |
| 20260502104715 | -1 | 337 | 0.0 | 0.0 | 0.00 | 0.00 | 0.00 | 91 | 1021.6 |
| 20260502103813 | -1 | 337 | 0.0 | 0.0 | 0.00 | 0.00 | 0.00 | 92 | 1021.6 |
| 20260502102815 | -1 | 7 | 0.0 | 0.0 | 0.00 | 0.00 | 0.00 | 92 | 1021.7 |
| 20260502101815 | -1 | 360 | 0.0 | 0.0 | 0.00 | 0.00 | 0.00 | 92 | 1021.7 |
| 20260502100814 | -1 | 360 | 0.0 | 0.0 | 0.00 | 0.00 | 0.00 | 92 | 1021.7 |
| 20260502091115 | -1 | 315 | 0.0 | 0.0 | 0.00 | 0.00 | 0.00 | 89 | 1021.7 |
| 20260502090114 | -1 | 315 | 0.0 | 0.0 | 0.00 | 0.00 | 0.00 | 89 | 1021.8 |
| 20260502070329 | 0 | 337 | 0.0 | 0.0 | 0.00 | 0.00 | 0.00 | 85 | 1021.7 |
| 20260502065415 | 0 | 337 | 0.0 | 0.0 | 0.00 | 0.00 | 0.00 | 87 | 1021.8 |
| 20260502063414 | 0 | 337 | 0.0 | 0.0 | 0.00 | 0.00 | 0.00 | 86 | 1022.0 |
| 20260502062414 | 0 | 337 | 0.0 | 0.0 | 0.00 | 0.00 | 0.00 | 86 | 1021.9 |
| 20260502061415 | 0 | 337 | 0.0 | 0.0 | 0.00 | 0.00 | 0.00 | 86 | 1021.9 |
| 20260502055514 | 0 | 337 | 0.0 | 0.0 | 0.00 | 0.00 | 0.00 | 86 | 1021.9 |
| 20260502054514 | 0 | 337 | 0.0 | 0.0 | 0.00 | 0.00 | 0.00 | 85 | 1021.9 |
| 20260502052514 | 0 | 337 | 0.0 | 0.0 | 0.00 | 0.00 | 0.00 | 83 | 1021.8 |
| 20260502051612 | 0 | 337 | 0.0 | 0.0 | 0.00 | 0.00 | 0.00 | 83 | 1021.9 |